Time;durP1;ratioP1;P1;durP2;ratioP2;P2;SDS_P1;SDS_P2;PMS_P1;PMS_P2;Temp;Humidity;BMP_temperature;BMP_pressure;BME280_temperature;BME280_humidity;BME280_pressure;Samples;Min_cycle;Max_cycle;Signal;HPM_P1;HPM_P2
2022/10/11 00:02:12;;;;;;;11.82;5.43;;;;;;;;;;5046182;28;20053;-44
2022/10/11 00:04:38;;;;;;;11.73;5.78;;;;;;;;;;5047330;28;20045;-45
2022/10/11 00:07:03;;;;;;;10.70;5.82;;;;;;;;;;5046381;28;20026;-47
2022/10/11 00:09:29;;;;;;;8.90;5.30;;;;;;;;;;5044754;28;20037;-45
2022/10/11 00:11:55;;;;;;;10.32;5.90;;;;;;;;;;5045551;28;20122;-43
2022/10/11 00:14:21;;;;;;;11.93;5.97;;;;;;;;;;5043315;28;20041;-47
2022/10/11 00:16:47;;;;;;;9.65;6.05;;;;;;;;;;5047081;28;20079;-45
2022/10/11 00:19:13;;;;;;;11.50;6.13;;;;;;;;;;5046623;28;20493;-47
2022/10/11 00:21:38;;;;;;;11.35;6.30;;;;;;;;;;5049526;28;20033;-47
2022/10/11 00:24:04;;;;;;;9.27;5.90;;;;;;;;;;5044254;28;20037;-45
2022/10/11 00:26:29;;;;;;;9.07;5.72;;;;;;;;;;5046514;28;20079;-46
2022/10/11 00:28:55;;;;;;;9.15;5.85;;;;;;;;;;5044402;28;20049;-46
2022/10/11 00:31:20;;;;;;;11.30;5.93;;;;;;;;;;5045186;28;20533;-44
2022/10/11 00:33:46;;;;;;;12.82;6.57;;;;;;;;;;5044974;28;20056;-45
2022/10/11 00:36:16;;;;;;;11.07;5.72;;;;;;;;;;5042539;28;20029;-45
2022/10/11 00:38:42;;;;;;;9.77;6.05;;;;;;;;;;5044845;28;20037;-47
2022/10/11 00:41:08;;;;;;;11.95;5.47;;;;;;;;;;5047467;28;20485;-44
2022/10/11 00:43:33;;;;;;;12.95;6.05;;;;;;;;;;5044809;28;20045;-44
2022/10/11 00:46:04;;;;;;;11.98;5.72;;;;;;;;;;5044237;28;20032;-45
2022/10/11 00:48:34;;;;;;;12.68;5.80;;;;;;;;;;5045595;28;20051;-49
2022/10/11 00:51:03;;;;;;;9.93;6.00;;;;;;;;;;5045425;28;20550;-47
2022/10/11 00:53:30;;;;;;;14.15;5.82;;;;;;;;;;5046151;28;20477;-47
2022/10/11 00:56:08;;;;;;;15.10;5.65;;;;;;;;;;5046466;28;20056;-43
2022/10/11 00:58:35;;;;;;;13.85;6.03;;;;;;;;;;5045612;28;20138;-45
2022/10/11 01:01:01;;;;;;;8.18;5.68;;;;;;;;;;5042525;28;20012;-45
2022/10/11 01:03:29;;;;;;;7.60;5.35;;;;;;;;;;5044862;28;20044;-43
2022/10/11 01:05:54;;;;;;;9.43;5.82;;;;;;;;;;5047202;28;20190;-45
2022/10/11 01:08:20;;;;;;;9.95;5.90;;;;;;;;;;5045594;28;20465;-44
2022/10/11 01:10:45;;;;;;;10.73;5.78;;;;;;;;;;5042775;28;20071;-46
2022/10/11 01:13:58;;;;;;;13.05;6.00;;;;;;;;;;5045655;28;20040;-44
2022/10/11 01:16:41;;;;;;;11.02;5.97;;;;;;;;;;4980810;28;20038;-44
2022/10/11 01:19:18;;;;;;;9.25;6.03;;;;;;;;;;4980428;28;20042;-45
2022/10/11 01:21:46;;;;;;;11.00;5.97;;;;;;;;;;4985790;28;20026;-47
2022/10/11 01:24:37;;;;;;;9.93;5.97;;;;;;;;;;4980209;28;20046;-44
2022/10/11 01:27:24;;;;;;;8.02;5.72;;;;;;;;;;4984735;28;20054;-44
2022/10/11 01:30:11;;;;;;;9.05;5.50;;;;;;;;;;4977715;28;20096;-44
2022/10/11 01:32:48;;;;;;;10.60;6.30;;;;;;;;;;4977059;28;20042;-44
2022/10/11 01:35:19;;;;;;;13.45;5.78;;;;;;;;;;4982153;28;20419;-43
2022/10/11 01:38:25;;;;;;;9.82;5.65;;;;;;;;;;4964450;28;20511;-44
2022/10/11 01:41:16;;;;;;;10.48;6.18;;;;;;;;;;4970683;28;20189;-47
2022/10/11 01:43:43;;;;;;;13.18;6.22;;;;;;;;;;4980688;28;20042;-47
2022/10/11 01:46:09;;;;;;;10.98;6.00;;;;;;;;;;4978537;28;20082;-43
2022/10/11 01:48:55;;;;;;;10.70;6.00;;;;;;;;;;4981306;28;20046;-43
2022/10/11 01:51:24;;;;;;;7.07;5.88;;;;;;;;;;4985054;28;20026;-45
2022/10/11 01:53:58;;;;;;;12.70;5.65;;;;;;;;;;5043985;28;20509;-46
2022/10/11 01:56:49;;;;;;;13.70;5.68;;;;;;;;;;5023542;28;20049;-44
2022/10/11 01:59:49;;;;;;;10.55;5.18;;;;;;;;;;5023623;28;20072;-44
2022/10/11 02:02:55;;;;;;;9.20;5.40;;;;;;;;;;5024579;28;20060;-43
2022/10/11 02:05:24;;;;;;;8.75;5.57;;;;;;;;;;5025245;28;20041;-46
2022/10/11 02:08:24;;;;;;;5.88;5.03;;;;;;;;;;5025662;28;20021;-43
2022/10/11 02:10:58;;;;;;;10.60;5.45;;;;;;;;;;5020820;28;20045;-43
2022/10/11 02:13:31;;;;;;;7.70;5.97;;;;;;;;;;5023818;28;20030;-45
2022/10/11 02:16:01;;;;;;;9.43;5.75;;;;;;;;;;5021906;28;20546;-45
2022/10/11 02:18:32;;;;;;;11.60;6.43;;;;;;;;;;5024600;28;20045;-43
2022/10/11 02:21:00;;;;;;;8.65;5.40;;;;;;;;;;5025398;28;20025;-46
2022/10/11 02:23:30;;;;;;;7.30;5.35;;;;;;;;;;5028024;28;20105;-45
2022/10/11 02:25:56;;;;;;;8.23;5.47;;;;;;;;;;5029169;28;20047;-48
2022/10/11 02:28:28;;;;;;;7.20;5.60;;;;;;;;;;5026613;28;20549;-45
2022/10/11 02:30:56;;;;;;;8.80;5.20;;;;;;;;;;5030915;28;20030;-44
2022/10/11 02:33:29;;;;;;;12.63;5.88;;;;;;;;;;5026708;28;20394;-44
2022/10/11 02:36:01;;;;;;;6.40;5.40;;;;;;;;;;5028263;28;20029;-44
2022/10/11 02:38:37;;;;;;;9.52;5.38;;;;;;;;;;5028864;28;20134;-45
2022/10/11 02:41:17;;;;;;;8.85;5.18;;;;;;;;;;5028426;28;20036;-49
2022/10/11 02:43:50;;;;;;;5.78;4.88;;;;;;;;;;5033080;28;20107;-46
2022/10/11 02:46:16;;;;;;;5.40;4.43;;;;;;;;;;5027001;28;20026;-45
2022/10/11 02:48:41;;;;;;;10.60;5.10;;;;;;;;;;5025597;28;20443;-44
2022/10/11 02:51:11;;;;;;;8.30;4.50;;;;;;;;;;5028632;28;20026;-44
2022/10/11 02:53:37;;;;;;;9.25;4.70;;;;;;;;;;5029117;28;20064;-44
2022/10/11 02:56:02;;;;;;;11.90;4.85;;;;;;;;;;5043065;28;20489;-47
2022/10/11 02:58:28;;;;;;;6.00;4.70;;;;;;;;;;5047200;28;20048;-47
2022/10/11 03:00:53;;;;;;;7.57;5.22;;;;;;;;;;5050182;28;20050;-44
2022/10/11 03:03:18;;;;;;;9.10;5.28;;;;;;;;;;5040497;28;20037;-44
2022/10/11 03:05:44;;;;;;;7.70;5.03;;;;;;;;;;5047153;28;20036;-44
2022/10/11 03:08:12;;;;;;;10.05;4.72;;;;;;;;;;5048263;28;20591;-46
2022/10/11 03:10:38;;;;;;;9.02;4.90;;;;;;;;;;5048533;28;20036;-47
2022/10/11 03:13:04;;;;;;;9.65;4.97;;;;;;;;;;5048304;28;20041;-45
2022/10/11 03:15:29;;;;;;;8.82;4.90;;;;;;;;;;5044010;28;20044;-46
2022/10/11 03:17:55;;;;;;;6.57;4.90;;;;;;;;;;5047710;28;20401;-45
2022/10/11 03:20:20;;;;;;;6.53;4.40;;;;;;;;;;5045080;28;20060;-49
2022/10/11 03:22:46;;;;;;;6.70;4.78;;;;;;;;;;5045857;28;20047;-47
2022/10/11 03:25:11;;;;;;;4.85;4.45;;;;;;;;;;5046004;28;20061;-50
2022/10/11 03:27:37;;;;;;;7.47;4.80;;;;;;;;;;5047602;28;20082;-43
2022/10/11 03:30:03;;;;;;;5.95;4.78;;;;;;;;;;5046042;28;20044;-43
2022/10/11 03:32:28;;;;;;;6.78;4.57;;;;;;;;;;5047258;28;20029;-49
2022/10/11 03:34:54;;;;;;;5.05;4.55;;;;;;;;;;5043809;28;21213;-46
2022/10/11 03:37:20;;;;;;;9.85;4.88;;;;;;;;;;5043782;28;20025;-45
2022/10/11 03:39:45;;;;;;;10.73;5.03;;;;;;;;;;5047231;28;20072;-48
2022/10/11 03:42:11;;;;;;;6.07;4.95;;;;;;;;;;5047545;28;20028;-45
2022/10/11 03:44:37;;;;;;;5.53;4.72;;;;;;;;;;5050758;28;20048;-45
2022/10/11 03:47:03;;;;;;;8.20;4.95;;;;;;;;;;5047643;28;20465;-44
2022/10/11 03:49:28;;;;;;;8.75;5.07;;;;;;;;;;5045329;28;20040;-44
2022/10/11 03:51:54;;;;;;;8.70;4.95;;;;;;;;;;5046217;28;20067;-46
2022/10/11 03:54:19;;;;;;;8.90;4.85;;;;;;;;;;5040896;28;20045;-43
2022/10/11 03:56:44;;;;;;;8.13;4.50;;;;;;;;;;5044983;28;20036;-46
2022/10/11 03:59:10;;;;;;;5.30;4.53;;;;;;;;;;5040769;28;20515;-44
2022/10/11 04:01:37;;;;;;;5.65;4.65;;;;;;;;;;5043605;28;20446;-44
2022/10/11 04:04:03;;;;;;;6.18;4.57;;;;;;;;;;5044444;28;20041;-43
2022/10/11 04:06:28;;;;;;;4.70;4.13;;;;;;;;;;5046342;28;20600;-43
2022/10/11 04:08:53;;;;;;;5.88;4.72;;;;;;;;;;5045929;28;20048;-43
2022/10/11 04:11:19;;;;;;;5.88;4.05;;;;;;;;;;5046269;28;20434;-43
2022/10/11 04:13:44;;;;;;;12.35;4.43;;;;;;;;;;5047531;28;20569;-43
2022/10/11 04:16:10;;;;;;;9.25;4.32;;;;;;;;;;5045679;28;20449;-46
2022/10/11 04:18:35;;;;;;;5.95;4.40;;;;;;;;;;5044993;28;20047;-45
2022/10/11 04:21:01;;;;;;;6.75;4.30;;;;;;;;;;5046446;28;20108;-44
2022/10/11 04:23:26;;;;;;;9.95;4.50;;;;;;;;;;5046651;28;20072;-48
2022/10/11 04:25:51;;;;;;;6.93;4.45;;;;;;;;;;5046233;28;20017;-43
2022/10/11 04:28:17;;;;;;;7.90;4.40;;;;;;;;;;5042110;28;20053;-43
2022/10/11 04:30:42;;;;;;;6.18;4.50;;;;;;;;;;5046684;28;20021;-46
2022/10/11 04:33:10;;;;;;;8.70;5.07;;;;;;;;;;5040504;28;20155;-43
2022/10/11 04:35:35;;;;;;;7.65;5.65;;;;;;;;;;5041376;28;20029;-43
2022/10/11 04:38:01;;;;;;;7.78;5.22;;;;;;;;;;5045811;28;20049;-44
2022/10/11 04:40:26;;;;;;;8.63;5.65;;;;;;;;;;5044668;28;20072;-45
2022/10/11 04:42:52;;;;;;;11.70;5.93;;;;;;;;;;5041591;28;20067;-44
2022/10/11 04:45:18;;;;;;;13.20;6.05;;;;;;;;;;5045696;28;20049;-43
2022/10/11 04:47:44;;;;;;;11.15;5.95;;;;;;;;;;5042067;28;20029;-46
2022/10/11 04:50:09;;;;;;;8.68;6.05;;;;;;;;;;5046332;28;20114;-46
2022/10/11 04:52:34;;;;;;;13.65;7.80;;;;;;;;;;5045617;28;20107;-45
2022/10/11 04:55:00;;;;;;;8.80;7.18;;;;;;;;;;5044013;28;20041;-45
2022/10/11 04:57:25;;;;;;;8.70;6.30;;;;;;;;;;5043367;28;20056;-47
2022/10/11 04:59:50;;;;;;;9.02;6.60;;;;;;;;;;5039323;28;20030;-48
2022/10/11 05:02:16;;;;;;;7.82;6.20;;;;;;;;;;5044868;28;20064;-48
2022/10/11 05:04:41;;;;;;;7.03;6.22;;;;;;;;;;5040746;28;20041;-45
2022/10/11 05:07:07;;;;;;;13.43;6.60;;;;;;;;;;5042702;28;20082;-44
2022/10/11 05:09:32;;;;;;;9.38;6.00;;;;;;;;;;5038984;28;20041;-46
2022/10/11 05:11:57;;;;;;;10.77;6.68;;;;;;;;;;5038567;28;20032;-48
2022/10/11 05:14:23;;;;;;;9.63;6.30;;;;;;;;;;5041735;28;20446;-44
2022/10/11 05:16:48;;;;;;;7.30;6.60;;;;;;;;;;5044630;28;20035;-44
2022/10/11 05:19:13;;;;;;;11.80;6.40;;;;;;;;;;5040249;28;20445;-44
2022/10/11 05:21:39;;;;;;;13.05;6.90;;;;;;;;;;5040203;28;20104;-43
2022/10/11 05:24:05;;;;;;;6.57;6.00;;;;;;;;;;5045337;28;20064;-46
2022/10/11 05:26:32;;;;;;;9.15;6.72;;;;;;;;;;5044414;28;20061;-48
2022/10/11 05:28:59;;;;;;;10.90;6.53;;;;;;;;;;5042906;28;20087;-44
2022/10/11 05:31:25;;;;;;;9.68;6.72;;;;;;;;;;5046837;28;20027;-44
2022/10/11 05:33:50;;;;;;;11.73;7.20;;;;;;;;;;5038505;28;20822;-43
2022/10/11 05:36:16;;;;;;;12.40;6.70;;;;;;;;;;5042521;28;20024;-44
2022/10/11 05:38:41;;;;;;;14.35;6.88;;;;;;;;;;5039899;28;20041;-47
2022/10/11 05:41:09;;;;;;;10.13;6.65;;;;;;;;;;5041007;28;20522;-46
2022/10/11 05:43:35;;;;;;;10.02;6.72;;;;;;;;;;5044513;28;20037;-47
2022/10/11 05:46:00;;;;;;;8.38;7.07;;;;;;;;;;5040797;28;20033;-45
2022/10/11 05:48:27;;;;;;;8.40;6.90;;;;;;;;;;5039530;28;21163;-43
2022/10/11 05:50:58;;;;;;;11.75;7.25;;;;;;;;;;5036372;28;20077;-43
2022/10/11 05:53:24;;;;;;;15.98;7.57;;;;;;;;;;5042187;28;20054;-44
2022/10/11 05:55:49;;;;;;;12.70;8.02;;;;;;;;;;5040468;28;20029;-47
2022/10/11 05:58:17;;;;;;;14.13;8.55;;;;;;;;;;5041644;28;20465;-45
2022/10/11 06:00:42;;;;;;;12.82;8.18;;;;;;;;;;5039569;28;20021;-48
2022/10/11 06:03:11;;;;;;;12.75;8.43;;;;;;;;;;5041690;28;20717;-45
2022/10/11 06:05:36;;;;;;;13.27;8.50;;;;;;;;;;5040327;28;20039;-45
2022/10/11 06:08:04;;;;;;;15.38;8.20;;;;;;;;;;5040574;28;20021;-48
2022/10/11 06:10:30;;;;;;;10.38;7.78;;;;;;;;;;5039080;28;20048;-46
2022/10/11 06:12:56;;;;;;;13.55;8.48;;;;;;;;;;5042693;28;20037;-45
2022/10/11 06:15:21;;;;;;;9.13;8.18;;;;;;;;;;5040754;28;20405;-46
2022/10/11 06:17:46;;;;;;;9.93;7.93;;;;;;;;;;5039557;28;20037;-46
2022/10/11 06:20:12;;;;;;;12.50;7.95;;;;;;;;;;5040602;28;20040;-44
2022/10/11 06:22:38;;;;;;;11.20;8.82;;;;;;;;;;5048789;28;20029;-49
2022/10/11 06:25:04;;;;;;;12.68;8.07;;;;;;;;;;5041725;28;20033;-48
2022/10/11 06:27:29;;;;;;;11.02;8.07;;;;;;;;;;5042812;28;20040;-44
2022/10/11 06:29:55;;;;;;;13.73;8.15;;;;;;;;;;5037003;28;20444;-46
2022/10/11 06:32:20;;;;;;;12.27;8.20;;;;;;;;;;5035905;28;20016;-43
2022/10/11 06:34:46;;;;;;;9.52;7.55;;;;;;;;;;5040173;28;20033;-45
2022/10/11 06:37:11;;;;;;;9.23;7.35;;;;;;;;;;5042477;28;20486;-44
2022/10/11 06:39:37;;;;;;;9.82;7.53;;;;;;;;;;5043961;28;20091;-44
2022/10/11 06:42:02;;;;;;;9.07;7.13;;;;;;;;;;5044540;28;20103;-46
2022/10/11 06:44:28;;;;;;;7.93;7.05;;;;;;;;;;5040046;28;20102;-45
2022/10/11 06:46:53;;;;;;;15.60;7.18;;;;;;;;;;5045340;28;20036;-43
2022/10/11 06:49:19;;;;;;;9.15;6.60;;;;;;;;;;5043105;28;20120;-46
2022/10/11 06:51:45;;;;;;;7.15;6.43;;;;;;;;;;5044263;28;20521;-43
2022/10/11 06:54:10;;;;;;;7.65;6.03;;;;;;;;;;5044489;28;20041;-45
2022/10/11 06:56:36;;;;;;;11.93;6.57;;;;;;;;;;5044960;28;20405;-44
2022/10/11 06:59:02;;;;;;;5.65;5.10;;;;;;;;;;5044369;28;20135;-44
2022/10/11 07:01:28;;;;;;;9.13;5.47;;;;;;;;;;5044216;28;20021;-46
2022/10/11 07:03:56;;;;;;;5.90;5.32;;;;;;;;;;5041054;28;20041;-44
2022/10/11 07:06:24;;;;;;;9.85;5.03;;;;;;;;;;5045887;28;20466;-44
2022/10/11 07:08:49;;;;;;;8.73;4.93;;;;;;;;;;5042672;28;20390;-48
2022/10/11 07:11:18;;;;;;;5.80;4.63;;;;;;;;;;5049548;28;20036;-49
2022/10/11 07:13:52;;;;;;;5.47;4.35;;;;;;;;;;5047442;28;20508;-45
2022/10/11 07:16:19;;;;;;;5.60;4.40;;;;;;;;;;5047335;28;20389;-48
2022/10/11 07:18:46;;;;;;;6.97;4.07;;;;;;;;;;5046641;28;20132;-44
2022/10/11 07:21:13;;;;;;;4.45;4.05;;;;;;;;;;5051058;28;20033;-44
2022/10/11 07:23:38;;;;;;;9.70;4.20;;;;;;;;;;5043996;28;20402;-44
2022/10/11 07:26:05;;;;;;;7.88;4.00;;;;;;;;;;5048339;28;20059;-46
2022/10/11 07:28:31;;;;;;;4.43;3.63;;;;;;;;;;5046750;28;20136;-46
2022/10/11 07:30:57;;;;;;;11.93;3.60;;;;;;;;;;5048190;28;20121;-47
2022/10/11 07:33:22;;;;;;;8.38;3.17;;;;;;;;;;5048400;28;20036;-46
2022/10/11 07:35:48;;;;;;;13.38;4.00;;;;;;;;;;5045323;28;20044;-44
2022/10/11 07:38:14;;;;;;;6.28;3.75;;;;;;;;;;5045699;28;20025;-45
2022/10/11 07:40:44;;;;;;;4.40;3.63;;;;;;;;;;5047783;28;20052;-49
2022/10/11 07:43:11;;;;;;;7.38;3.88;;;;;;;;;;5046666;28;20029;-44
2022/10/11 07:45:37;;;;;;;4.95;3.60;;;;;;;;;;5047107;28;20024;-45
2022/10/11 07:48:03;;;;;;;11.50;3.83;;;;;;;;;;5048440;28;20158;-47
2022/10/11 07:50:29;;;;;;;5.13;3.38;;;;;;;;;;5043685;28;20124;-45
2022/10/11 07:52:54;;;;;;;4.28;3.80;;;;;;;;;;5048349;28;20351;-46
2022/10/11 07:55:19;;;;;;;5.70;3.85;;;;;;;;;;5029152;28;20175;-48
2022/10/11 07:57:45;;;;;;;6.22;4.30;;;;;;;;;;5047162;28;20053;-49
2022/10/11 08:00:11;;;;;;;4.60;4.18;;;;;;;;;;5045412;28;20033;-44
2022/10/11 08:02:36;;;;;;;9.45;3.47;;;;;;;;;;5044835;28;20032;-46
2022/10/11 08:05:02;;;;;;;10.00;4.28;;;;;;;;;;5046926;28;20703;-48
2022/10/11 08:07:28;;;;;;;4.40;3.58;;;;;;;;;;5047645;28;20445;-48
2022/10/11 08:09:54;;;;;;;7.63;4.00;;;;;;;;;;5048284;28;20520;-45
2022/10/11 08:12:19;;;;;;;4.93;3.60;;;;;;;;;;5045783;28;20037;-47
2022/10/11 08:14:44;;;;;;;7.47;3.90;;;;;;;;;;5047319;28;20044;-48
2022/10/11 08:17:10;;;;;;;3.92;3.20;;;;;;;;;;5046770;28;20033;-44
2022/10/11 08:19:35;;;;;;;4.00;3.33;;;;;;;;;;5044989;28;20045;-44
2022/10/11 08:22:01;;;;;;;5.68;3.38;;;;;;;;;;5048278;28;20030;-45
2022/10/11 08:24:26;;;;;;;9.82;3.65;;;;;;;;;;5047602;28;20045;-45
2022/10/11 08:26:51;;;;;;;7.60;3.50;;;;;;;;;;5041173;28;20040;-44
2022/10/11 08:29:17;;;;;;;6.50;2.80;;;;;;;;;;5047270;28;20166;-46
2022/10/11 08:31:46;;;;;;;7.07;3.10;;;;;;;;;;5046119;28;20032;-48
2022/10/11 08:34:12;;;;;;;6.90;3.70;;;;;;;;;;5045317;28;20417;-47
2022/10/11 08:36:37;;;;;;;6.85;3.90;;;;;;;;;;5044952;28;20028;-46
2022/10/11 08:39:05;;;;;;;4.88;3.40;;;;;;;;;;5045911;28;20044;-45
2022/10/11 08:41:36;;;;;;;9.23;3.40;;;;;;;;;;5046580;28;20033;-45
2022/10/11 08:44:13;;;;;;;4.50;3.20;;;;;;;;;;5046280;28;20405;-46
2022/10/11 08:46:44;;;;;;;4.32;3.55;;;;;;;;;;5047288;28;20055;-46
2022/10/11 08:49:12;;;;;;;4.53;3.15;;;;;;;;;;5045555;28;20041;-45
2022/10/11 08:51:42;;;;;;;6.25;3.30;;;;;;;;;;5044719;28;20466;-47
2022/10/11 08:54:33;;;;;;;6.72;3.40;;;;;;;;;;5046468;28;20444;-45
2022/10/11 08:57:01;;;;;;;7.35;3.60;;;;;;;;;;5046191;28;20052;-44
2022/10/11 08:59:37;;;;;;;4.43;3.22;;;;;;;;;;5047542;28;20095;-46
2022/10/11 09:02:33;;;;;;;4.18;3.28;;;;;;;;;;5045133;28;20570;-44
2022/10/11 09:05:00;;;;;;;8.25;3.15;;;;;;;;;;5046000;28;20099;-45
2022/10/11 09:07:38;;;;;;;6.07;3.13;;;;;;;;;;5044256;28;20049;-45
2022/10/11 09:10:37;;;;;;;6.05;3.10;;;;;;;;;;5041790;28;20044;-44
2022/10/11 09:13:30;;;;;;;5.78;3.20;;;;;;;;;;5046041;28;20035;-47
2022/10/11 09:16:13;;;;;;;5.18;3.20;;;;;;;;;;5045683;28;20049;-48
2022/10/11 09:19:20;;;;;;;4.22;2.70;;;;;;;;;;5044667;28;20064;-45
2022/10/11 09:21:52;;;;;;;6.35;2.72;;;;;;;;;;4989565;28;20105;-45
2022/10/11 09:24:58;;;;;;;6.45;2.80;;;;;;;;;;4983913;28;20126;-46
2022/10/11 09:27:41;;;;;;;22.40;4.60;;;;;;;;;;4984009;28;20042;-45
2022/10/11 09:30:15;;;;;;;3.25;2.80;;;;;;;;;;4986440;28;20562;-45
2022/10/11 09:32:48;;;;;;;10.55;3.30;;;;;;;;;;4984559;28;20049;-47
2022/10/11 09:35:17;;;;;;;5.85;2.90;;;;;;;;;;4985304;28;20039;-45
2022/10/11 09:37:54;;;;;;;5.15;3.10;;;;;;;;;;4985747;28;20434;-49
2022/10/11 09:40:38;;;;;;;4.85;2.60;;;;;;;;;;4984201;28;20141;-48
2022/10/11 09:43:04;;;;;;;6.90;2.60;;;;;;;;;;4986034;28;20034;-46
2022/10/11 09:45:30;;;;;;;8.25;2.85;;;;;;;;;;4985103;28;20085;-44
2022/10/11 09:47:58;;;;;;;4.40;3.22;;;;;;;;;;4985157;28;20048;-45
2022/10/11 09:50:27;;;;;;;9.63;2.40;;;;;;;;;;4985488;28;20504;-46
2022/10/11 09:53:02;;;;;;;7.43;2.70;;;;;;;;;;4983189;28;20042;-44
2022/10/11 09:55:45;;;;;;;9.10;3.30;;;;;;;;;;4984030;28;20062;-48
2022/10/11 09:58:34;;;;;;;6.85;3.13;;;;;;;;;;5004343;28;20040;-47
2022/10/11 10:01:04;;;;;;;8.00;3.00;;;;;;;;;;5042025;28;20029;-44
2022/10/11 10:03:35;;;;;;;5.82;3.55;;;;;;;;;;5039608;28;20041;-49
2022/10/11 10:06:23;;;;;;;9.93;3.30;;;;;;;;;;5043976;28;20029;-48
2022/10/11 10:08:49;;;;;;;6.63;3.00;;;;;;;;;;5045443;28;20051;-48
2022/10/11 10:11:16;;;;;;;5.10;3.65;;;;;;;;;;5044834;28;20466;-48
2022/10/11 10:13:53;;;;;;;6.20;3.33;;;;;;;;;;5044048;28;20474;-46
2022/10/11 10:16:20;;;;;;;5.85;3.33;;;;;;;;;;5044969;28;20044;-44
2022/10/11 10:18:55;;;;;;;8.45;3.25;;;;;;;;;;5041253;28;20533;-45
2022/10/11 10:21:37;;;;;;;15.50;4.90;;;;;;;;;;5041973;28;20491;-45
2022/10/11 10:24:16;;;;;;;8.07;3.33;;;;;;;;;;5045039;28;20124;-49
2022/10/11 10:26:41;;;;;;;9.77;3.22;;;;;;;;;;5041984;28;20032;-46
2022/10/11 10:29:07;;;;;;;8.30;3.42;;;;;;;;;;5044498;28;20045;-47
2022/10/11 10:31:50;;;;;;;8.13;3.53;;;;;;;;;;5046417;28;20493;-44
2022/10/11 10:34:27;;;;;;;6.15;3.22;;;;;;;;;;5043129;28;20073;-45
2022/10/11 10:36:57;;;;;;;8.27;2.88;;;;;;;;;;5046449;28;20466;-46
2022/10/11 10:39:30;;;;;;;8.02;2.80;;;;;;;;;;5043705;28;20048;-48
2022/10/11 10:41:56;;;;;;;5.72;2.30;;;;;;;;;;5039385;28;20060;-48
2022/10/11 10:44:21;;;;;;;5.68;3.13;;;;;;;;;;5045682;28;20478;-49
2022/10/11 10:46:49;;;;;;;3.70;2.25;;;;;;;;;;5030751;28;20029;-45
2022/10/11 10:49:31;;;;;;;4.93;2.70;;;;;;;;;;5049251;28;20099;-46
2022/10/11 10:52:09;;;;;;;;;;;;;;;;;;5048323;28;20072;-43
2022/10/11 10:54:52;;;;;;;7.75;2.90;;;;;;;;;;5047650;28;20641;-46
2022/10/11 10:57:27;;;;;;;12.40;3.10;;;;;;;;;;5046988;28;20915;-47
2022/10/11 11:00:12;;;;;;;3.22;2.90;;;;;;;;;;5045784;28;20523;-44
2022/10/11 11:02:59;;;;;;;3.63;2.38;;;;;;;;;;5048418;28;20485;-44
2022/10/11 11:05:43;;;;;;;6.28;2.60;;;;;;;;;;5045830;28;20108;-45
2022/10/11 11:08:14;;;;;;;8.27;3.70;;;;;;;;;;5048436;28;20029;-44
2022/10/11 11:11:11;;;;;;;4.95;2.60;;;;;;;;;;5048998;28;20024;-49
2022/10/11 11:13:50;;;;;;;6.32;2.67;;;;;;;;;;5042207;28;20049;-44
2022/10/11 11:16:31;;;;;;;4.90;2.65;;;;;;;;;;5047008;28;20090;-44
2022/10/11 11:19:16;;;;;;;10.13;2.70;;;;;;;;;;5046040;28;20049;-46
2022/10/11 11:22:23;;;;;;;3.95;2.17;;;;;;;;;;5046776;28;20033;-47
2022/10/11 11:25:37;;;;;;;6.00;2.20;;;;;;;;;;5046142;28;20106;-45
2022/10/11 11:28:23;;;;;;;8.60;2.35;;;;;;;;;;5037771;28;20061;-44
2022/10/11 11:31:17;;;;;;;6.13;2.58;;;;;;;;;;5045562;28;20448;-45
2022/10/11 11:34:10;;;;;;;9.57;2.22;;;;;;;;;;5046760;28;20056;-47
2022/10/11 11:36:43;;;;;;;18.35;3.25;;;;;;;;;;5045575;28;20561;-43
2022/10/11 11:39:34;;;;;;;10.35;3.08;;;;;;;;;;5048748;28;20045;-49
2022/10/11 11:42:10;;;;;;;10.57;2.78;;;;;;;;;;5039156;28;20041;-44
2022/10/11 11:44:45;;;;;;;5.07;2.63;;;;;;;;;;5044658;28;20041;-44
2022/10/11 11:47:30;;;;;;;7.15;2.42;;;;;;;;;;5046634;28;20091;-50
2022/10/11 11:50:21;;;;;;;5.55;2.47;;;;;;;;;;5046721;28;20527;-45
2022/10/11 11:53:03;;;;;;;8.53;2.40;;;;;;;;;;5041398;28;20059;-45
2022/10/11 11:55:56;;;;;;;8.73;2.25;;;;;;;;;;5047886;28;20076;-43
2022/10/11 11:58:40;;;;;;;7.32;2.55;;;;;;;;;;5046575;28;20068;-48
2022/10/11 12:01:12;;;;;;;4.65;2.60;;;;;;;;;;5044815;28;20076;-49
2022/10/11 12:03:45;;;;;;;4.43;2.30;;;;;;;;;;5046269;28;20051;-45
2022/10/11 12:06:13;;;;;;;7.00;2.72;;;;;;;;;;5045026;28;20048;-44
2022/10/11 12:09:20;;;;;;;6.32;2.63;;;;;;;;;;5046535;28;20112;-49
2022/10/11 12:12:06;;;;;;;6.65;2.58;;;;;;;;;;5044755;28;20041;-45
2022/10/11 12:14:31;;;;;;;7.35;3.42;;;;;;;;;;5044352;28;20399;-47
2022/10/11 12:17:20;;;;;;;7.45;3.05;;;;;;;;;;5046918;28;20079;-46
2022/10/11 12:20:01;;;;;;;4.65;2.58;;;;;;;;;;5045519;28;20424;-45
2022/10/11 12:22:27;;;;;;;3.85;2.53;;;;;;;;;;5048327;28;21491;-48
2022/10/11 12:25:00;;;;;;;9.85;3.38;;;;;;;;;;5042844;28;20029;-44
2022/10/11 12:27:42;;;;;;;9.30;3.00;;;;;;;;;;5039586;28;20030;-44
2022/10/11 12:30:41;;;;;;;4.50;3.22;;;;;;;;;;5044767;28;20040;-49
2022/10/11 12:33:44;;;;;;;5.50;3.13;;;;;;;;;;5047331;28;20037;-44
2022/10/11 12:36:28;;;;;;;6.88;2.88;;;;;;;;;;5042744;28;20032;-45
2022/10/11 12:39:18;;;;;;;5.68;2.83;;;;;;;;;;5046186;28;20052;-48
2022/10/11 12:41:49;;;;;;;5.13;2.90;;;;;;;;;;5040568;28;20112;-44
2022/10/11 12:44:18;;;;;;;11.73;3.10;;;;;;;;;;5042024;28;20041;-47
2022/10/11 12:46:49;;;;;;;2.85;2.50;;;;;;;;;;5048627;28;20033;-45
2022/10/11 12:49:44;;;;;;;6.20;3.25;;;;;;;;;;5042946;28;20033;-45
2022/10/11 12:52:15;;;;;;;6.93;2.90;;;;;;;;;;5040853;28;20025;-46
2022/10/11 12:54:43;;;;;;;5.28;3.00;;;;;;;;;;5045256;28;20037;-44
2022/10/11 12:57:26;;;;;;;5.35;2.70;;;;;;;;;;5046669;28;20056;-46
2022/10/11 12:59:52;;;;;;;9.43;3.30;;;;;;;;;;5042926;28;20060;-47
2022/10/11 13:02:34;;;;;;;6.38;2.95;;;;;;;;;;5047867;28;20055;-46
2022/10/11 13:05:14;;;;;;;6.03;2.63;;;;;;;;;;5043176;28;20045;-46
2022/10/11 13:07:40;;;;;;;5.30;3.05;;;;;;;;;;5042910;28;20107;-46
2022/10/11 13:10:05;;;;;;;8.35;3.35;;;;;;;;;;5044650;28;20037;-44
2022/10/11 13:12:39;;;;;;;6.63;3.33;;;;;;;;;;5028084;28;20124;-44
2022/10/11 13:15:11;;;;;;;3.28;2.97;;;;;;;;;;5039162;28;20061;-48
2022/10/11 13:17:38;;;;;;;9.68;3.25;;;;;;;;;;5045288;28;20416;-48
2022/10/11 13:20:16;;;;;;;4.85;2.95;;;;;;;;;;5045325;28;20531;-45
2022/10/11 13:22:43;;;;;;;8.80;2.95;;;;;;;;;;5045863;28;20493;-48
2022/10/11 13:25:18;;;;;;;11.02;2.75;;;;;;;;;;5045767;28;20404;-47
2022/10/11 13:27:44;;;;;;;8.88;3.20;;;;;;;;;;5043995;28;20041;-46
2022/10/11 13:30:20;;;;;;;7.78;2.80;;;;;;;;;;5046683;28;20025;-50
2022/10/11 13:32:46;;;;;;;4.43;2.75;;;;;;;;;;5043828;28;20447;-47
2022/10/11 13:35:32;;;;;;;4.70;2.83;;;;;;;;;;5042728;28;20108;-45
2022/10/11 13:37:58;;;;;;;8.80;3.33;;;;;;;;;;5043983;28;20055;-47
2022/10/11 13:40:25;;;;;;;4.03;2.75;;;;;;;;;;5041701;28;20116;-48
2022/10/11 14:42:16;;;;;;;6.13;3.00;;;;;;;;;;5048101;27;20642;-44
2022/10/11 14:44:42;;;;;;;7.97;3.25;;;;;;;;;;5002995;28;20057;-43
2022/10/11 14:47:13;;;;;;;6.50;3.10;;;;;;;;;;5001465;28;20054;-46
2022/10/11 14:49:38;;;;;;;6.35;3.40;;;;;;;;;;4999308;28;20054;-44
2022/10/11 14:52:06;;;;;;;6.80;3.75;;;;;;;;;;4996581;28;20030;-42
2022/10/11 14:54:32;;;;;;;8.18;3.70;;;;;;;;;;5015092;28;20589;-48
2022/10/11 14:57:00;;;;;;;7.05;3.55;;;;;;;;;;5019334;28;20045;-43
2022/10/11 14:59:31;;;;;;;12.27;4.45;;;;;;;;;;5020112;28;20037;-47
2022/10/11 15:01:56;;;;;;;9.32;4.25;;;;;;;;;;5014008;28;20129;-44
2022/10/11 15:04:24;;;;;;;6.28;3.42;;;;;;;;;;5018212;28;21255;-44
2022/10/11 15:06:51;;;;;;;9.02;3.78;;;;;;;;;;5017609;28;20029;-43
2022/10/11 15:09:19;;;;;;;8.48;3.50;;;;;;;;;;5018063;28;20496;-43
2022/10/11 15:11:45;;;;;;;7.43;3.60;;;;;;;;;;5017970;28;20038;-44
2022/10/11 15:14:11;;;;;;;8.02;3.75;;;;;;;;;;5017290;28;20735;-45
2022/10/11 15:16:36;;;;;;;15.63;3.88;;;;;;;;;;5019571;28;20095;-46
2022/10/11 15:19:02;;;;;;;8.00;3.40;;;;;;;;;;5022397;28;20426;-43
2022/10/11 15:21:28;;;;;;;8.93;3.50;;;;;;;;;;5018902;28;20022;-45
2022/10/11 15:23:54;;;;;;;15.82;4.60;;;;;;;;;;5018670;28;20045;-43
2022/10/11 15:26:23;;;;;;;12.15;3.50;;;;;;;;;;5018702;28;20120;-45
2022/10/11 15:28:49;;;;;;;9.57;3.50;;;;;;;;;;5017755;28;20405;-47
2022/10/11 15:31:14;;;;;;;6.82;3.28;;;;;;;;;;5017527;28;20038;-42
2022/10/11 15:33:40;;;;;;;8.18;3.65;;;;;;;;;;5017288;28;20038;-44
2022/10/11 15:36:10;;;;;;;9.30;4.05;;;;;;;;;;5019475;28;20109;-44
2022/10/11 15:38:35;;;;;;;7.47;3.30;;;;;;;;;;5018837;28;20430;-45
2022/10/11 15:41:01;;;;;;;7.13;3.20;;;;;;;;;;5019147;28;20060;-43
2022/10/11 15:43:26;;;;;;;6.78;3.78;;;;;;;;;;5016778;28;20038;-45
2022/10/11 15:45:53;;;;;;;6.90;3.60;;;;;;;;;;5019843;28;20049;-46
2022/10/11 15:48:21;;;;;;;9.20;3.78;;;;;;;;;;5016398;28;20037;-45
2022/10/11 15:50:49;;;;;;;8.10;3.30;;;;;;;;;;5019809;28;20506;-45
2022/10/11 15:53:27;;;;;;;9.95;3.50;;;;;;;;;;5008076;28;20042;-42
2022/10/11 15:55:54;;;;;;;10.02;3.45;;;;;;;;;;5005591;28;20372;-43
2022/10/11 15:58:32;;;;;;;6.05;4.03;;;;;;;;;;5003506;28;20524;-44
2022/10/11 16:01:00;;;;;;;6.68;2.92;;;;;;;;;;5004406;28;20048;-46
2022/10/11 16:03:28;;;;;;;6.28;3.30;;;;;;;;;;5005687;28;20601;-44
2022/10/11 16:05:55;;;;;;;4.93;2.97;;;;;;;;;;5004255;28;20330;-49